createdAt,value
2018-01-08T00:00:02.974Z,99.99
2018-01-08T00:01:03.014Z,99.99
2018-01-08T00:02:03.033Z,99.99
2018-01-08T00:03:03.065Z,99.99
2018-01-08T00:04:03.096Z,99.99
2018-01-08T00:05:03.125Z,99.99
2018-01-08T00:06:03.154Z,99.99
2018-01-08T00:07:03.187Z,99.99
2018-01-08T00:08:03.214Z,99.99
2018-01-08T00:09:03.244Z,99.99
2018-01-08T00:10:03.270Z,99.99
2018-01-08T00:11:03.302Z,99.99
2018-01-08T00:12:03.331Z,99.99
2018-01-08T00:13:03.361Z,99.99
2018-01-08T00:14:03.391Z,99.99
2018-01-08T00:15:03.419Z,99.99
2018-01-08T00:16:03.449Z,99.99
2018-01-08T00:17:03.480Z,99.99
2018-01-08T00:18:03.510Z,99.99
2018-01-08T00:19:03.539Z,99.99
2018-01-08T00:20:03.570Z,99.99
2018-01-08T00:21:03.599Z,99.99
2018-01-08T00:22:03.627Z,99.99
2018-01-08T00:23:03.656Z,99.99
2018-01-08T00:24:03.695Z,99.99
2018-01-08T00:25:03.717Z,99.99
2018-01-08T00:26:03.746Z,99.99
2018-01-08T00:27:03.788Z,99.99
2018-01-08T00:28:03.814Z,99.99
2018-01-08T00:29:03.839Z,99.99
2018-01-08T00:30:03.868Z,99.99
2018-01-08T00:31:03.897Z,99.99
2018-01-08T00:32:03.927Z,99.99
2018-01-08T00:33:03.959Z,99.99
2018-01-08T00:34:03.988Z,99.99
2018-01-08T00:35:04.013Z,99.99
2018-01-08T00:36:04.048Z,99.99
2018-01-08T00:37:04.074Z,99.99
2018-01-08T00:38:04.103Z,99.99
2018-01-08T00:39:04.131Z,99.99
2018-01-08T00:40:04.163Z,99.99
2018-01-08T00:41:04.227Z,99.99
2018-01-08T00:42:04.220Z,99.99
2018-01-08T00:43:04.251Z,99.99
2018-01-08T00:44:04.292Z,99.99
2018-01-08T00:45:04.309Z,99.99
2018-01-08T00:46:04.340Z,99.99
2018-01-08T00:47:04.370Z,99.99
2018-01-08T00:48:04.399Z,99.99
2018-01-08T00:49:04.430Z,99.99
2018-01-08T00:50:04.460Z,99.99
2018-01-08T00:51:04.572Z,99.99
2018-01-08T00:52:04.520Z,99.99
2018-01-08T00:53:04.564Z,99.99
2018-01-08T00:54:04.580Z,99.99
2018-01-08T00:55:04.605Z,99.99
2018-01-08T00:56:04.640Z,99.99
2018-01-08T00:57:04.666Z,99.99
2018-01-08T00:58:04.842Z,99.99
2018-01-08T00:59:04.730Z,99.99
2018-01-08T01:00:04.756Z,99.99
2018-01-08T01:01:04.783Z,99.99
2018-01-08T01:02:04.870Z,99.99
2018-01-08T01:03:04.843Z,99.99
2018-01-08T01:04:04.874Z,99.99
2018-01-08T01:05:04.904Z,99.99
2018-01-08T01:06:04.934Z,99.99
2018-01-08T01:07:04.966Z,99.99
2018-01-08T01:08:05.003Z,99.99
2018-01-08T01:09:05.023Z,99.99
2018-01-08T01:10:05.051Z,99.99
2018-01-08T01:11:05.096Z,99.99
2018-01-08T01:12:05.112Z,99.99
2018-01-08T01:13:05.142Z,99.99
2018-01-08T01:14:05.180Z,99.99
2018-01-08T01:15:05.203Z,99.99
2018-01-08T01:16:05.232Z,99.99
2018-01-08T01:17:05.262Z,99.99
2018-01-08T01:18:05.291Z,99.99
2018-01-08T01:19:05.322Z,99.99
2018-01-08T01:20:05.402Z,99.99
2018-01-08T01:21:05.378Z,99.99
2018-01-08T01:22:05.408Z,99.99
2018-01-08T01:23:05.439Z,99.99
2018-01-08T01:24:05.467Z,99.99
2018-01-08T01:25:05.500Z,99.99
2018-01-08T01:26:05.527Z,99.99
2018-01-08T01:27:05.571Z,99.99
2018-01-08T01:28:05.585Z,99.99
2018-01-08T01:29:05.616Z,99.99
2018-01-08T01:30:05.645Z,99.99
2018-01-08T01:31:05.673Z,99.99
2018-01-08T01:32:05.705Z,99.99
2018-01-08T01:33:05.733Z,99.99
2018-01-08T01:34:05.840Z,99.99
2018-01-08T01:35:05.794Z,99.99
2018-01-08T01:36:05.824Z,99.99
2018-01-08T01:37:05.910Z,99.99
2018-01-08T01:38:05.885Z,99.99
2018-01-08T01:39:05.915Z,99.99
2018-01-08T01:40:05.944Z,99.99
2018-01-08T01:41:05.974Z,99.99
2018-01-08T01:42:06.000Z,99.99
2018-01-08T01:43:06.036Z,99.99
2018-01-08T01:44:06.066Z,99.99
2018-01-08T01:45:06.092Z,99.99
2018-01-08T01:46:06.117Z,99.99
2018-01-08T01:47:06.150Z,99.99
2018-01-08T01:48:06.178Z,99.99
2018-01-08T01:49:06.208Z,99.99
2018-01-08T01:50:06.238Z,99.99
2018-01-08T01:51:06.322Z,99.99
2018-01-08T01:52:06.299Z,99.99
2018-01-08T01:53:06.325Z,99.99
2018-01-08T01:54:06.357Z,99.99
2018-01-08T01:55:06.388Z,99.99
2018-01-08T01:56:06.416Z,99.99
2018-01-08T01:57:06.465Z,99.99
2018-01-08T01:58:06.545Z,99.99
2018-01-08T01:59:06.509Z,99.99
2018-01-08T02:00:06.537Z,99.99
2018-01-08T02:01:06.568Z,99.99
2018-01-08T02:02:06.597Z,99.99
2018-01-08T02:03:06.827Z,99.99
2018-01-08T02:04:06.662Z,99.99
2018-01-08T02:05:06.741Z,99.99
2018-01-08T02:06:06.713Z,99.99
2018-01-08T02:07:06.742Z,99.99
2018-01-08T02:08:06.771Z,99.99
2018-01-08T02:09:06.804Z,99.99
2018-01-08T02:10:06.884Z,99.99
2018-01-08T02:11:06.861Z,99.99
2018-01-08T02:12:06.891Z,99.99
2018-01-08T02:13:06.918Z,99.99
2018-01-08T02:14:06.948Z,99.99
2018-01-08T02:15:06.979Z,99.99
2018-01-08T02:16:07.009Z,99.99
2018-01-08T02:17:07.150Z,99.99
2018-01-08T02:18:07.067Z,99.99
2018-01-08T02:19:07.099Z,99.99
2018-01-08T02:20:07.129Z,99.99
2018-01-08T02:21:07.159Z,99.99
2018-01-08T02:22:07.189Z,99.99
2018-01-08T02:23:07.217Z,99.99
2018-01-08T02:24:07.246Z,99.99
2018-01-08T02:25:07.276Z,99.99
2018-01-08T02:26:07.304Z,99.99
2018-01-08T02:27:07.334Z,99.99
2018-01-08T02:28:07.363Z,99.99
2018-01-08T02:29:07.452Z,99.99
2018-01-08T02:30:07.421Z,99.99
2018-01-08T02:31:07.449Z,99.99
2018-01-08T02:32:07.480Z,99.99
2018-01-08T02:33:07.510Z,99.99
2018-01-08T02:34:07.613Z,99.99
2018-01-08T02:35:07.572Z,99.99
2018-01-08T02:36:07.600Z,99.99
2018-01-08T02:37:07.631Z,99.99
2018-01-08T02:38:07.661Z,99.99
2018-01-08T02:39:07.694Z,99.99
2018-01-08T02:40:07.715Z,99.99
2018-01-08T02:41:07.751Z,99.99
2018-01-08T02:42:07.778Z,99.99
2018-01-08T02:43:07.806Z,99.99
2018-01-08T02:44:07.837Z,99.99
2018-01-08T02:45:07.867Z,99.99
2018-01-08T02:46:07.894Z,99.99
2018-01-08T02:47:07.924Z,99.99
2018-01-08T02:48:07.956Z,99.99
2018-01-08T02:49:07.985Z,99.99
2018-01-08T02:50:08.014Z,99.99
2018-01-08T02:51:08.046Z,99.99
2018-01-08T02:52:08.073Z,99.99
2018-01-08T02:53:08.103Z,99.99
2018-01-08T02:54:08.133Z,99.99
2018-01-08T02:55:08.167Z,99.99
2018-01-08T02:56:08.192Z,99.99
2018-01-08T02:57:08.229Z,99.99
2018-01-08T02:58:08.252Z,99.99
2018-01-08T02:59:08.282Z,99.99
2018-01-08T03:00:08.314Z,99.99
2018-01-08T03:01:08.339Z,99.99
2018-01-08T03:02:08.369Z,99.99
2018-01-08T03:03:08.404Z,99.99
2018-01-08T03:04:08.429Z,99.62
2018-01-08T03:05:08.458Z,99.99
2018-01-08T03:06:08.489Z,99.99
2018-01-08T03:07:08.518Z,99.81
2018-01-08T03:08:08.547Z,99.90
2018-01-08T03:09:08.577Z,99.90
2018-01-08T03:10:08.711Z,99.99
2018-01-08T03:11:08.640Z,99.99
2018-01-08T03:12:08.670Z,99.99
2018-01-08T03:13:08.696Z,99.99
2018-01-08T03:14:08.727Z,99.99
2018-01-08T03:15:08.755Z,99.99
2018-01-08T03:16:08.786Z,99.99
2018-01-08T03:17:08.904Z,99.99
2018-01-08T03:18:08.846Z,99.52
2018-01-08T03:19:08.873Z,99.62
2018-01-08T03:20:08.905Z,99.99
2018-01-08T03:21:08.936Z,99.62
2018-01-08T03:22:08.966Z,99.33
2018-01-08T03:23:08.999Z,99.99
2018-01-08T03:24:09.021Z,99.99
2018-01-08T03:25:09.052Z,99.62
2018-01-08T03:26:09.081Z,99.52
2018-01-08T03:27:09.114Z,99.52
2018-01-08T03:28:09.147Z,99.52
2018-01-08T03:29:09.172Z,99.43
2018-01-08T03:30:09.201Z,99.38
2018-01-08T03:31:09.230Z,99.48
2018-01-08T03:32:09.258Z,99.29
2018-01-08T03:33:09.291Z,99.66
2018-01-08T03:34:09.433Z,99.48
2018-01-08T03:35:09.349Z,99.76
2018-01-08T03:36:09.377Z,99.85
2018-01-08T03:37:09.407Z,99.66
2018-01-08T03:38:09.438Z,99.48
2018-01-08T03:39:09.468Z,99.95
2018-01-08T03:40:09.496Z,99.85
2018-01-08T03:41:09.527Z,99.85
2018-01-08T03:42:09.558Z,99.99
2018-01-08T03:43:09.589Z,99.95
2018-01-08T03:44:09.618Z,99.57
2018-01-08T03:45:09.644Z,99.29
2018-01-08T03:46:09.674Z,99.81
2018-01-08T03:47:09.704Z,99.99
2018-01-08T03:48:09.733Z,99.52
2018-01-08T03:49:09.765Z,99.43
2018-01-08T03:50:09.791Z,99.90
2018-01-08T03:51:09.822Z,99.62
2018-01-08T03:52:09.852Z,99.52
2018-01-08T03:53:09.988Z,99.24
2018-01-08T03:54:09.912Z,99.43
2018-01-08T03:55:09.941Z,99.62
2018-01-08T03:56:09.974Z,99.52
2018-01-08T03:57:09.998Z,99.33
2018-01-08T03:58:10.030Z,99.24
2018-01-08T03:59:10.060Z,99.71
2018-01-08T04:00:10.090Z,99.71
2018-01-08T04:01:10.119Z,99.99
2018-01-08T04:02:10.150Z,99.15
2018-01-08T04:03:10.183Z,99.52
2018-01-08T04:04:10.211Z,99.24
2018-01-08T04:05:10.239Z,99.52
2018-01-08T04:06:10.270Z,99.81
2018-01-08T04:07:10.298Z,99.90
2018-01-08T04:08:10.325Z,99.52
2018-01-08T04:09:10.362Z,99.90
2018-01-08T04:10:10.436Z,99.52
2018-01-08T04:11:10.416Z,99.05
2018-01-08T04:12:10.446Z,99.24
2018-01-08T04:13:10.477Z,99.15
2018-01-08T04:14:10.503Z,98.30
2018-01-08T04:15:10.551Z,98.96
2018-01-08T04:16:10.576Z,99.33
2018-01-08T04:17:10.596Z,99.62
2018-01-08T04:18:10.625Z,98.68
2018-01-08T04:19:10.654Z,99.24
2018-01-08T04:20:10.686Z,99.24
2018-01-08T04:21:10.715Z,98.77
2018-01-08T04:22:10.743Z,98.96
2018-01-08T04:23:10.784Z,99.05
2018-01-08T04:24:10.810Z,98.96
2018-01-08T04:25:10.833Z,98.68
2018-01-08T04:26:10.864Z,98.58
2018-01-08T04:27:10.896Z,98.58
2018-01-08T04:28:10.922Z,98.49
2018-01-08T04:29:10.952Z,98.39
2018-01-08T04:30:10.982Z,98.96
2018-01-08T04:31:11.014Z,98.58
2018-01-08T04:32:11.041Z,98.68
2018-01-08T04:33:11.074Z,98.20
2018-01-08T04:34:11.189Z,99.33
2018-01-08T04:35:11.132Z,98.58
2018-01-08T04:36:11.164Z,99.05
2018-01-08T04:37:11.203Z,99.15
2018-01-08T04:38:11.219Z,99.15
2018-01-08T04:39:11.249Z,99.15
2018-01-08T04:40:11.284Z,98.20
2018-01-08T04:41:11.309Z,98.20
2018-01-08T04:42:11.340Z,98.39
2018-01-08T04:43:11.380Z,98.68
2018-01-08T04:44:11.404Z,98.30
2018-01-08T04:45:11.430Z,98.11
2018-01-08T04:46:11.477Z,98.30
2018-01-08T04:47:11.499Z,98.86
2018-01-08T04:48:11.520Z,98.11
2018-01-08T04:49:11.547Z,98.11
2018-01-08T04:50:11.577Z,98.39
2018-01-08T04:51:11.612Z,97.82
2018-01-08T04:52:11.641Z,98.20
2018-01-08T04:53:11.745Z,98.44
2018-01-08T04:54:11.698Z,98.58
2018-01-08T04:55:11.726Z,98.68
2018-01-08T04:56:11.757Z,98.86
2018-01-08T04:57:11.786Z,98.25
2018-01-08T04:58:11.818Z,98.63
2018-01-08T04:59:11.846Z,99.10
2018-01-08T05:00:11.879Z,99.38
2018-01-08T05:01:11.907Z,99.99
2018-01-08T05:02:11.936Z,99.48
2018-01-08T05:03:11.967Z,99.19
2018-01-08T05:04:11.998Z,99.71
2018-01-08T05:05:12.027Z,99.01
2018-01-08T05:06:12.052Z,99.05
2018-01-08T05:07:12.080Z,98.25
2018-01-08T05:08:12.112Z,98.49
2018-01-08T05:09:12.143Z,98.91
2018-01-08T05:10:12.287Z,98.63
2018-01-08T05:11:12.200Z,99.01
2018-01-08T05:12:12.230Z,99.19
2018-01-08T05:13:12.260Z,99.29
2018-01-08T05:14:12.301Z,99.01
2018-01-08T05:15:12.319Z,99.33
2018-01-08T05:16:12.348Z,98.68
2018-01-08T05:17:12.377Z,98.25
2018-01-08T05:18:12.410Z,98.44
2018-01-08T05:19:12.438Z,98.44
2018-01-08T05:20:12.469Z,98.82
2018-01-08T05:21:12.498Z,99.48
2018-01-08T05:22:12.587Z,99.10
2018-01-08T05:23:12.565Z,99.38
2018-01-08T05:24:12.590Z,99.95
2018-01-08T05:25:12.618Z,99.48
2018-01-08T05:26:12.648Z,99.48
2018-01-08T05:27:12.700Z,99.57
2018-01-08T05:28:12.703Z,99.48
2018-01-08T05:29:12.742Z,99.95
2018-01-08T05:30:12.762Z,99.57
2018-01-08T05:31:12.792Z,99.66
2018-01-08T05:32:12.820Z,99.48
2018-01-08T05:33:12.850Z,99.57
2018-01-08T05:34:13.017Z,99.38
2018-01-08T05:35:12.910Z,99.10
2018-01-08T05:36:12.940Z,99.29
2018-01-08T05:37:12.971Z,99.48
2018-01-08T05:38:13.000Z,99.10
2018-01-08T05:39:13.031Z,99.19
2018-01-08T05:40:13.061Z,99.01
2018-01-08T05:41:13.103Z,98.15
2018-01-08T05:42:13.115Z,99.10
2018-01-08T05:43:13.145Z,99.01
2018-01-08T05:44:13.178Z,98.82
2018-01-08T05:45:13.205Z,99.01
2018-01-08T05:46:13.560Z,99.10
2018-01-08T05:47:13.263Z,98.63
2018-01-08T05:48:13.294Z,98.34
2018-01-08T05:49:13.324Z,98.53
2018-01-08T05:50:13.351Z,98.25
2018-01-08T05:51:13.381Z,98.30
2018-01-08T05:52:13.410Z,98.15
2018-01-08T05:53:13.445Z,98.44
2018-01-08T05:54:13.473Z,98.15
2018-01-08T05:55:13.516Z,98.25
2018-01-08T05:56:13.532Z,99.10
2018-01-08T05:57:13.562Z,98.15
2018-01-08T05:58:13.588Z,98.53
2018-01-08T05:59:13.618Z,98.25
2018-01-08T06:00:13.647Z,98.44
2018-01-08T06:01:13.676Z,98.63
2018-01-08T06:02:13.705Z,98.34
2018-01-08T06:03:13.743Z,98.53
2018-01-08T06:04:13.766Z,98.06
2018-01-08T06:05:13.795Z,98.15
2018-01-08T06:06:13.822Z,98.44
2018-01-08T06:07:13.856Z,98.25
2018-01-08T06:08:13.883Z,99.01
2018-01-08T06:09:13.914Z,98.72
2018-01-08T06:10:14.017Z,98.91
2018-01-08T06:11:13.973Z,98.91
2018-01-08T06:12:14.006Z,99.01
2018-01-08T06:13:14.035Z,98.53
2018-01-08T06:14:14.064Z,98.44
2018-01-08T06:15:14.093Z,99.19
2018-01-08T06:16:14.119Z,99.15
2018-01-08T06:17:14.150Z,98.25
2018-01-08T06:18:14.188Z,98.68
2018-01-08T06:19:14.210Z,98.86
2018-01-08T06:20:14.259Z,98.44
2018-01-08T06:21:14.268Z,98.58
2018-01-08T06:22:14.302Z,98.49
2018-01-08T06:23:14.340Z,98.53
2018-01-08T06:24:14.357Z,98.15
2018-01-08T06:25:14.388Z,98.63
2018-01-08T06:26:14.416Z,99.29
2018-01-08T06:27:14.516Z,98.63
2018-01-08T06:28:14.477Z,98.72
2018-01-08T06:29:14.506Z,99.48
2018-01-08T06:30:14.535Z,99.19
2018-01-08T06:31:14.561Z,99.29
2018-01-08T06:32:14.597Z,98.63
2018-01-08T06:33:14.620Z,98.82
2018-01-08T06:34:14.654Z,99.57
2018-01-08T06:35:14.686Z,98.72
2018-01-08T06:36:14.710Z,98.63
2018-01-08T06:37:14.742Z,99.19
2018-01-08T06:38:14.770Z,99.38
2018-01-08T06:39:14.807Z,99.57
2018-01-08T06:40:14.826Z,99.66
2018-01-08T06:41:14.856Z,99.66
2018-01-08T06:42:14.887Z,99.48
2018-01-08T06:43:14.928Z,99.57
2018-01-08T06:44:14.947Z,99.38
2018-01-08T06:45:14.976Z,99.38
2018-01-08T06:46:15.080Z,99.48
2018-01-08T06:47:15.038Z,99.85
2018-01-08T06:48:15.062Z,99.66
2018-01-08T06:49:15.094Z,99.85
2018-01-08T06:50:15.137Z,99.66
2018-01-08T06:51:15.153Z,99.95
2018-01-08T06:52:15.180Z,99.57
2018-01-08T06:53:15.210Z,99.99
2018-01-08T06:54:15.239Z,99.57
2018-01-08T06:55:15.280Z,99.95
2018-01-08T06:56:15.299Z,99.48
2018-01-08T06:57:15.330Z,99.99
2018-01-08T06:58:15.361Z,99.95
2018-01-08T06:59:15.388Z,99.99
2018-01-08T07:00:15.420Z,99.85
2018-01-08T07:01:15.449Z,99.85
2018-01-08T07:02:15.476Z,99.66
2018-01-08T07:03:15.512Z,99.95
2018-01-08T07:04:15.544Z,99.95
2018-01-08T07:05:15.564Z,99.99
2018-01-08T07:06:15.600Z,99.95
2018-01-08T07:07:15.622Z,99.99
2018-01-08T07:08:15.650Z,99.48
2018-01-08T07:09:15.683Z,99.48
2018-01-08T07:10:15.824Z,99.57
2018-01-08T07:11:15.749Z,99.48
2018-01-08T07:12:15.788Z,99.38
2018-01-08T07:13:15.801Z,99.48
2018-01-08T07:14:15.831Z,99.48
2018-01-08T07:15:15.861Z,99.48
2018-01-08T07:16:15.890Z,99.99
2018-01-08T07:17:15.920Z,99.57
2018-01-08T07:18:15.946Z,99.95
2018-01-08T07:19:15.973Z,99.85
2018-01-08T07:20:16.006Z,99.99
2018-01-08T07:21:16.034Z,99.85
2018-01-08T07:22:16.064Z,99.99
2018-01-08T07:23:16.091Z,99.57
2018-01-08T07:24:16.123Z,99.48
2018-01-08T07:25:16.152Z,99.85
2018-01-08T07:26:16.181Z,99.85
2018-01-08T07:27:16.212Z,99.85
2018-01-08T07:28:16.242Z,99.85
2018-01-08T07:29:16.272Z,99.95
2018-01-08T07:30:16.297Z,99.66
2018-01-08T07:31:16.329Z,99.99
2018-01-08T07:32:16.387Z,99.99
2018-01-08T07:33:16.390Z,99.99
2018-01-08T07:34:16.414Z,99.99
2018-01-08T07:35:16.446Z,99.99
2018-01-08T07:36:16.473Z,99.99
2018-01-08T07:37:16.503Z,99.99
2018-01-08T07:38:16.534Z,99.99
2018-01-08T07:39:16.619Z,99.99
2018-01-08T07:40:16.592Z,99.99
2018-01-08T07:41:16.626Z,99.99
2018-01-08T07:42:16.650Z,99.99
2018-01-08T07:43:16.679Z,99.99
2018-01-08T07:44:16.719Z,99.99
2018-01-08T07:45:16.745Z,99.99
2018-01-08T07:46:17.092Z,99.99
2018-01-08T07:47:16.801Z,99.99
2018-01-08T07:48:16.827Z,99.99
2018-01-08T07:49:16.856Z,99.99
2018-01-08T07:50:16.900Z,99.99
2018-01-08T07:51:17.233Z,99.99
2018-01-08T07:52:16.945Z,99.99
2018-01-08T07:53:16.975Z,99.99
2018-01-08T07:54:17.004Z,99.99
2018-01-08T07:55:17.030Z,99.99
2018-01-08T07:56:17.071Z,99.99
2018-01-08T07:57:17.090Z,99.99
2018-01-08T07:58:17.127Z,99.99
2018-01-08T07:59:17.157Z,99.99
2018-01-08T08:00:17.178Z,99.99
2018-01-08T08:01:17.207Z,99.99
2018-01-08T08:02:17.236Z,99.99
2018-01-08T08:03:17.340Z,99.99
2018-01-08T08:04:17.296Z,99.99
2018-01-08T08:05:17.326Z,99.99
2018-01-08T08:06:17.356Z,99.99
2018-01-08T08:07:17.386Z,99.99
2018-01-08T08:08:17.416Z,99.99
2018-01-08T08:09:17.442Z,99.99
2018-01-08T08:10:17.471Z,99.99
2018-01-08T08:11:17.500Z,99.99
2018-01-08T08:12:17.529Z,99.99
2018-01-08T08:13:17.559Z,99.99
2018-01-08T08:14:17.586Z,99.99
2018-01-08T08:15:17.624Z,99.99
2018-01-08T08:16:17.648Z,99.99
2018-01-08T08:17:17.677Z,99.99
2018-01-08T08:18:17.707Z,99.99
2018-01-08T08:19:17.739Z,99.99
2018-01-08T08:20:17.763Z,99.99
2018-01-08T08:21:17.792Z,99.99
2018-01-08T08:22:17.925Z,99.99
2018-01-08T08:23:17.854Z,99.99
2018-01-08T08:24:17.881Z,99.99
2018-01-08T08:25:17.916Z,99.99
2018-01-08T08:26:17.939Z,99.99
2018-01-08T08:27:17.974Z,99.99
2018-01-08T08:28:18.000Z,99.99
2018-01-08T08:29:18.028Z,99.99
2018-01-08T08:30:18.058Z,99.99
2018-01-08T08:31:18.089Z,99.99
2018-01-08T08:32:18.320Z,99.95
2018-01-08T08:33:18.149Z,99.99
2018-01-08T08:34:18.184Z,99.99
2018-01-08T08:35:18.201Z,99.99
2018-01-08T08:36:18.296Z,99.99
2018-01-08T08:37:18.319Z,99.85
2018-01-08T08:38:18.289Z,99.85
2018-01-08T08:39:18.348Z,99.95
2018-01-08T08:40:18.349Z,99.85
2018-01-08T08:41:18.379Z,99.57
2018-01-08T08:42:18.409Z,99.85
2018-01-08T08:43:18.451Z,99.95
2018-01-08T08:44:18.473Z,99.95
2018-01-08T08:45:18.499Z,99.76
2018-01-08T08:46:18.525Z,99.99
2018-01-08T08:47:18.556Z,99.66
2018-01-08T08:48:18.583Z,99.99
2018-01-08T08:49:18.615Z,99.99
2018-01-08T08:50:18.644Z,99.48
2018-01-08T08:51:18.676Z,99.29
2018-01-08T08:52:18.708Z,99.38
2018-01-08T08:53:18.730Z,99.29
2018-01-08T08:54:18.760Z,99.38
2018-01-08T08:55:18.791Z,99.76
2018-01-08T08:56:19.194Z,99.57
2018-01-08T08:57:18.852Z,99.66
2018-01-08T08:58:18.954Z,99.57
2018-01-08T08:59:18.912Z,99.48
2018-01-08T09:00:18.937Z,99.66
2018-01-08T09:01:18.967Z,99.57
2018-01-08T09:02:18.997Z,99.19
2018-01-08T09:03:19.112Z,99.66
2018-01-08T09:04:19.055Z,99.57
2018-01-08T09:05:19.086Z,99.66
2018-01-08T09:06:19.122Z,99.38
2018-01-08T09:07:19.143Z,99.57
2018-01-08T09:08:19.174Z,99.57
2018-01-08T09:09:19.203Z,99.38
2018-01-08T09:10:19.232Z,99.38
2018-01-08T09:11:19.263Z,99.48
2018-01-08T09:12:19.296Z,99.66
2018-01-08T09:13:19.324Z,99.29
2018-01-08T09:14:19.349Z,99.66
2018-01-08T09:15:19.473Z,99.38
2018-01-08T09:16:19.414Z,99.85
2018-01-08T09:17:19.438Z,99.99
2018-01-08T09:18:19.477Z,99.99
2018-01-08T09:19:19.498Z,99.76
2018-01-08T09:20:19.535Z,99.57
2018-01-08T09:21:19.559Z,99.38
2018-01-08T09:22:19.598Z,99.38
2018-01-08T09:23:19.617Z,99.48
2018-01-08T09:24:19.644Z,99.85
2018-01-08T09:25:19.682Z,99.99
2018-01-08T09:26:19.704Z,99.99
2018-01-08T09:27:19.734Z,99.38
2018-01-08T09:28:19.763Z,99.19
2018-01-08T09:29:19.795Z,99.38
2018-01-08T09:30:19.825Z,99.19
2018-01-08T09:31:19.851Z,99.01
2018-01-08T09:32:19.899Z,98.96
2018-01-08T09:33:19.910Z,99.48
2018-01-08T09:34:19.937Z,99.29
2018-01-08T09:35:19.971Z,99.01
2018-01-08T09:36:19.999Z,99.01
2018-01-08T09:37:20.032Z,99.38
2018-01-08T09:38:20.057Z,99.29
2018-01-08T09:39:20.181Z,99.10
2018-01-08T09:40:20.117Z,99.19
2018-01-08T09:41:20.145Z,99.19
2018-01-08T09:42:20.177Z,99.10
2018-01-08T09:43:20.206Z,99.10
2018-01-08T09:44:20.236Z,98.25
2018-01-08T09:45:20.265Z,98.82
2018-01-08T09:46:20.297Z,98.39
2018-01-08T09:47:20.327Z,98.39
2018-01-08T09:48:20.352Z,98.39
2018-01-08T09:49:20.388Z,98.30
2018-01-08T09:50:20.409Z,98.49
2018-01-08T09:51:20.442Z,98.44
2018-01-08T09:52:20.470Z,98.68
2018-01-08T09:53:20.501Z,98.39
2018-01-08T09:54:20.529Z,98.20
2018-01-08T09:55:20.563Z,98.49
2018-01-08T09:56:20.708Z,98.39
2018-01-08T09:57:20.620Z,97.54
2018-01-08T09:58:20.647Z,98.11
2018-01-08T09:59:20.677Z,98.06
2018-01-08T10:00:20.715Z,98.15
2018-01-08T10:01:20.738Z,98.58
2018-01-08T10:02:20.770Z,98.30
2018-01-08T10:03:20.798Z,98.20
2018-01-08T10:04:20.827Z,98.01
2018-01-08T10:05:20.859Z,97.87
2018-01-08T10:06:20.883Z,97.77
2018-01-08T10:07:20.913Z,98.25
2018-01-08T10:08:20.999Z,98.34
2018-01-08T10:09:20.974Z,98.25
2018-01-08T10:10:21.005Z,98.30
2018-01-08T10:11:21.050Z,98.77
2018-01-08T10:12:21.063Z,98.44
2018-01-08T10:13:21.150Z,98.06
2018-01-08T10:14:21.121Z,98.20
2018-01-08T10:15:21.224Z,97.87
2018-01-08T10:16:21.183Z,98.25
2018-01-08T10:17:21.211Z,98.63
2018-01-08T10:18:21.240Z,99.19
2018-01-08T10:19:21.270Z,99.19
2018-01-08T10:20:21.301Z,99.01
2018-01-08T10:21:21.385Z,99.10
2018-01-08T10:22:21.372Z,99.01
2018-01-08T10:23:21.390Z,99.01
2018-01-08T10:24:21.428Z,98.91
2018-01-08T10:25:21.452Z,98.82
2018-01-08T10:26:21.481Z,99.29
2018-01-08T10:27:21.518Z,98.82
2018-01-08T10:28:21.541Z,99.01
2018-01-08T10:29:21.567Z,98.63
2018-01-08T10:30:21.596Z,98.63
2018-01-08T10:31:21.632Z,98.34
2018-01-08T10:32:21.708Z,98.63
2018-01-08T10:33:21.703Z,98.72
2018-01-08T10:34:21.720Z,99.38
2018-01-08T10:35:21.745Z,99.29
2018-01-08T10:36:21.775Z,99.38
2018-01-08T10:37:21.807Z,99.66
2018-01-08T10:38:21.833Z,99.57
2018-01-08T10:39:21.974Z,99.48
2018-01-08T10:40:21.931Z,99.76
2018-01-08T10:41:21.925Z,99.29
2018-01-08T10:42:21.952Z,99.66
2018-01-08T10:43:21.982Z,99.01
2018-01-08T10:44:22.012Z,99.76
2018-01-08T10:45:22.050Z,99.66
2018-01-08T10:46:22.068Z,99.57
2018-01-08T10:47:22.099Z,99.38
2018-01-08T10:48:22.128Z,99.01
2018-01-08T10:49:22.217Z,99.10
2018-01-08T10:50:22.188Z,99.10
2018-01-08T10:51:22.216Z,98.63
2018-01-08T10:52:22.446Z,99.01
2018-01-08T10:53:22.278Z,99.01
2018-01-08T10:54:22.304Z,99.01
2018-01-08T10:55:22.333Z,98.82
2018-01-08T10:56:22.365Z,99.01
2018-01-08T10:57:22.395Z,98.72
2018-01-08T10:58:22.424Z,99.10
2018-01-08T10:59:22.454Z,98.63
2018-01-08T11:00:22.484Z,98.82
2018-01-08T11:01:22.526Z,98.82
2018-01-08T11:02:22.539Z,98.72
2018-01-08T11:03:22.571Z,99.01
2018-01-08T11:04:22.600Z,98.82
2018-01-08T11:05:22.632Z,99.38
2018-01-08T11:06:22.661Z,99.48
2018-01-08T11:07:22.689Z,99.38
2018-01-08T11:08:22.821Z,99.95
2018-01-08T11:09:22.749Z,99.48
2018-01-08T11:10:22.779Z,99.99
2018-01-08T11:11:22.808Z,99.38
2018-01-08T11:12:22.837Z,99.76
2018-01-08T11:13:22.871Z,99.57
2018-01-08T11:14:22.906Z,99.57
2018-01-08T11:15:23.051Z,99.95
2018-01-08T11:16:22.957Z,99.57
2018-01-08T11:17:22.985Z,99.48
2018-01-08T11:18:23.013Z,99.99
2018-01-08T11:19:23.041Z,99.66
2018-01-08T11:20:23.105Z,99.48
2018-01-08T11:21:23.101Z,99.57
2018-01-08T11:22:23.129Z,99.99
2018-01-08T11:23:23.159Z,99.95
2018-01-08T11:24:23.193Z,99.99
2018-01-08T11:25:23.221Z,99.48
2018-01-08T11:26:23.247Z,99.57
2018-01-08T11:27:23.277Z,99.48
2018-01-08T11:28:23.317Z,99.62
2018-01-08T11:29:23.351Z,98.77
2018-01-08T11:30:23.367Z,98.25
2018-01-08T11:31:23.398Z,99.15
2018-01-08T11:32:23.800Z,98.30
2018-01-08T11:33:23.459Z,98.34
2018-01-08T11:34:23.499Z,99.10
2018-01-08T11:35:23.513Z,98.82
2018-01-08T11:36:23.543Z,99.19
2018-01-08T11:37:23.590Z,99.19
2018-01-08T11:38:23.613Z,99.15
2018-01-08T11:39:23.631Z,98.49
2018-01-08T11:40:23.661Z,98.25
2018-01-08T11:41:23.690Z,99.10
2018-01-08T11:42:23.720Z,98.86
2018-01-08T11:43:23.749Z,98.68
2018-01-08T11:44:23.779Z,98.68
2018-01-08T11:45:23.809Z,98.44
2018-01-08T11:46:23.840Z,98.63
2018-01-08T11:47:23.870Z,98.63
2018-01-08T11:48:23.907Z,99.10
2018-01-08T11:49:23.931Z,99.38
2018-01-08T11:50:23.974Z,99.76
2018-01-08T11:51:24.072Z,99.29
2018-01-08T11:52:24.020Z,99.29
2018-01-08T11:53:24.051Z,99.38
2018-01-08T11:54:24.075Z,99.38
2018-01-08T11:56:24.134Z,99.10
2018-01-08T11:57:24.163Z,99.24
2018-01-08T11:58:24.193Z,99.43
2018-01-08T11:59:24.223Z,98.77
2018-01-08T12:00:24.250Z,98.49
2018-01-08T12:01:24.283Z,98.01
2018-01-08T12:02:24.311Z,98.11
2018-01-08T12:03:24.345Z,98.39
2018-01-08T12:04:24.384Z,98.49
2018-01-08T12:05:24.400Z,97.82
2018-01-08T12:06:24.431Z,97.44
2018-01-08T12:07:24.460Z,98.11
2018-01-08T12:08:24.596Z,97.92
2018-01-08T12:09:24.522Z,97.92
2018-01-08T12:10:24.548Z,98.77
2018-01-08T12:11:24.594Z,98.58
2018-01-08T12:12:24.606Z,98.20
2018-01-08T12:13:24.638Z,99.05
2018-01-08T12:14:24.674Z,99.05
2018-01-08T12:15:24.698Z,98.39
2018-01-08T12:16:24.727Z,98.39
2018-01-08T12:17:24.757Z,98.30
2018-01-08T12:18:24.792Z,98.39
2018-01-08T12:19:24.816Z,98.49
2018-01-08T12:20:24.843Z,98.20
2018-01-08T12:21:24.888Z,98.86
2018-01-08T12:22:24.903Z,99.05
2018-01-08T12:23:24.933Z,99.05
2018-01-08T12:24:24.965Z,98.86
2018-01-08T12:25:25.029Z,99.05
2018-01-08T12:26:25.025Z,99.33
2018-01-08T12:27:25.056Z,99.24
2018-01-08T12:28:25.087Z,98.49
2018-01-08T12:29:25.118Z,98.58
2018-01-08T12:30:25.145Z,98.58
2018-01-08T12:31:25.175Z,98.77
2018-01-08T12:32:25.205Z,98.39
2018-01-08T12:33:25.234Z,98.58
2018-01-08T12:34:25.277Z,98.96
2018-01-08T12:35:25.290Z,98.86
2018-01-08T12:36:25.319Z,99.05
2018-01-08T12:37:25.356Z,99.33
2018-01-08T12:38:25.444Z,99.52
2018-01-08T12:39:25.416Z,99.15
2018-01-08T12:40:25.437Z,98.96
2018-01-08T12:41:25.470Z,99.71
2018-01-08T12:42:25.498Z,99.24
2018-01-08T12:43:25.530Z,99.71
2018-01-08T12:44:25.698Z,99.52
2018-01-08T12:45:25.585Z,99.52
2018-01-08T12:46:25.615Z,99.62
2018-01-08T12:47:25.645Z,99.43
2018-01-08T12:48:25.676Z,99.24
2018-01-08T12:49:25.705Z,99.43
2018-01-08T12:50:25.736Z,99.05
2018-01-08T12:51:25.766Z,99.33
2018-01-08T12:52:25.798Z,99.24
2018-01-08T12:53:25.833Z,98.96